Terminal Aerodrome Forecast
Issued by NWS Blacksburg, VA

Current Version | Previous Version | Graphics & Text | Print | Product List | Glossary On
Versions: 1 2 3 4 5 6 7 8 9 10 11 12 13 14 15 16 17 18 19 20 21 22 23 24 25 26 27 28 29 30 31 32 33 34 35 36 37 38 39 40
000
FTUS41 KRNK 201254 AAA
TAFBLF
TAF AMD
KBLF 201254Z 2013/2112 30007KT P6SM BKN005
     FM201500 30009KT P6SM SKC
     FM210000 34003KT P6SM OVC250
     FM210500 11003KT P6SM OVC050
     FM210800 10003KT 4SM -RA OVC015=

USA.gov is the U.S. government's official web portal to all federal, state and local government web resources and services.